createdAt,value
2022-08-01T04:27:50.100Z,4.23
2022-08-01T04:31:01.425Z,4.20
2022-08-01T04:34:06.797Z,4.53
2022-08-01T04:37:12.308Z,4.10
2022-08-01T04:40:17.458Z,4.62
2022-08-01T04:43:20.423Z,4.25
2022-08-01T04:46:23.586Z,4.30
2022-08-01T04:49:26.483Z,4.10
2022-08-01T04:52:39.294Z,4.12
2022-08-01T04:55:44.835Z,4.18
2022-08-01T04:58:47.852Z,4.57
2022-08-01T05:02:01.197Z,4.10
2022-08-01T05:05:04.072Z,4.30
2022-08-01T05:08:07.296Z,3.65
2022-08-01T05:11:10.014Z,3.45
2022-08-01T05:14:12.760Z,4.20
2022-08-01T05:17:15.259Z,3.40
2022-08-01T05:20:19.031Z,3.92
2022-08-01T05:23:36.614Z,3.60
2022-08-01T05:26:57.718Z,3.80
2022-08-01T05:30:00.222Z,3.70
2022-08-01T05:33:03.052Z,3.60
2022-08-01T05:36:05.857Z,3.67
2022-08-01T05:39:08.775Z,3.80
2022-08-01T05:42:11.228Z,3.78
2022-08-01T05:45:14.005Z,3.60
2022-08-01T05:48:16.669Z,3.40
2022-08-01T05:51:19.795Z,3.58
2022-08-01T05:54:22.324Z,3.83
2022-08-01T05:57:25.067Z,3.50
2022-08-01T06:00:27.682Z,3.40
2022-08-01T06:03:32.278Z,3.08
2022-08-01T06:06:37.206Z,3.35
2022-08-01T06:09:39.929Z,3.75
2022-08-01T06:12:42.428Z,3.30
2022-08-01T06:15:45.282Z,3.40
2022-08-01T06:18:48.051Z,3.47
2022-08-01T06:21:54.255Z,3.58
2022-08-01T06:36:05.435Z,2.95
2022-08-01T06:39:08.308Z,3.00
2022-08-01T06:42:10.988Z,2.97
2022-08-01T06:45:15.051Z,2.80
2022-08-01T06:48:17.522Z,3.10
2022-08-01T06:51:21.766Z,3.17
2022-08-01T06:54:26.685Z,3.10
2022-08-01T06:57:29.722Z,2.90
2022-08-01T07:00:32.993Z,2.90
2022-08-01T07:03:54.527Z,3.17
2022-08-01T07:06:58.518Z,2.97
2022-08-01T07:10:01.823Z,3.00
2022-08-01T07:13:05.930Z,3.20
2022-08-01T07:16:08.668Z,3.17
2022-08-01T07:22:28.759Z,3.17
2022-08-01T07:25:32.475Z,2.95
2022-08-01T07:28:35.209Z,3.40
2022-08-01T07:31:46.930Z,2.92
2022-08-01T07:34:49.855Z,3.15
2022-08-01T07:37:54.151Z,3.08
2022-08-01T07:40:57.854Z,3.30
2022-08-01T07:44:04.693Z,2.80
2022-08-01T07:47:07.881Z,2.90
2022-08-01T07:50:11.194Z,2.90
2022-08-01T07:53:14.126Z,2.80
2022-08-01T07:56:16.676Z,3.35
2022-08-01T07:59:24.055Z,2.92
2022-08-01T08:02:29.051Z,2.95
2022-08-01T08:05:58.423Z,2.80
2022-08-01T08:08:56.791Z,2.70
2022-08-01T08:11:59.930Z,2.65
2022-08-01T08:53:37.364Z,2.80
2022-08-01T08:56:40.842Z,3.20
2022-08-01T08:59:47.516Z,3.00
2022-08-01T09:02:50.441Z,3.08
2022-08-01T09:05:53.192Z,3.58
2022-08-01T09:08:56.131Z,3.10
2022-08-01T09:15:51.174Z,3.12
2022-08-01T09:19:15.888Z,2.95
2022-08-01T09:22:23.865Z,3.12
2022-08-01T09:25:46.183Z,3.33
2022-08-01T09:28:50.547Z,3.30
2022-08-01T09:31:53.741Z,3.42
2022-08-01T09:34:57.247Z,3.00
2022-08-01T09:38:22.217Z,3.37
2022-08-01T09:41:37.680Z,3.00
2022-08-01T09:44:54.550Z,3.17
2022-08-01T09:47:57.918Z,3.00
2022-08-01T09:51:07.193Z,3.37
2022-08-01T09:54:12.363Z,3.30
2022-08-01T09:57:17.465Z,3.00
2022-08-01T10:00:44.224Z,3.03
2022-08-01T10:04:15.737Z,2.90
2022-08-01T10:07:20.158Z,3.22
2022-08-01T10:10:32.268Z,3.22
2022-08-01T10:13:36.972Z,3.10
2022-08-01T10:16:40.370Z,3.00
2022-08-01T10:19:44.621Z,3.37
2022-08-01T10:22:48.184Z,3.20
2022-08-01T10:26:04.520Z,3.70
2022-08-01T10:29:44.923Z,3.97
2022-08-01T10:32:36.047Z,3.37
2022-08-01T10:35:46.751Z,3.35
2022-08-01T10:38:56.991Z,3.40
2022-08-01T10:42:00.520Z,3.05
2022-08-01T10:45:14.161Z,3.60
2022-08-01T10:48:26.491Z,3.20
2022-08-01T11:00:01.955Z,3.50
2022-08-01T11:18:11.798Z,3.28
2022-08-01T11:21:59.001Z,3.58
2022-08-01T11:28:34.687Z,3.15
2022-08-01T11:31:39.240Z,3.53
2022-08-01T11:34:56.456Z,3.30
2022-08-01T11:38:25.376Z,2.97
2022-08-01T11:41:37.158Z,3.30
2022-08-01T11:44:51.749Z,3.33
2022-08-01T11:47:54.639Z,3.40
2022-08-01T11:51:02.012Z,3.58
2022-08-01T11:54:05.085Z,3.10
2022-08-01T11:57:13.972Z,3.00
2022-08-01T12:15:37.746Z,3.70
2022-08-01T12:18:43.366Z,3.50
2022-08-01T12:21:45.985Z,3.90
2022-08-01T12:24:49.158Z,4.03
2022-08-01T12:27:55.958Z,4.15
2022-08-01T12:30:59.919Z,3.90
2022-08-01T12:34:27.073Z,4.15
2022-08-01T12:37:30.590Z,3.72
2022-08-01T12:40:36.228Z,3.60
2022-08-01T12:43:39.273Z,3.80
2022-08-01T12:46:44.558Z,3.85
2022-08-01T12:49:49.701Z,3.53
2022-08-01T12:52:53.096Z,3.65
2022-08-01T12:55:59.243Z,3.75
2022-08-01T13:02:43.414Z,3.00
2022-08-01T13:05:56.457Z,3.45
2022-08-01T13:09:20.228Z,3.20
2022-08-01T13:12:23.589Z,3.75
2022-08-01T13:15:35.572Z,3.70
